Time;durP1;ratioP1;P1;durP2;ratioP2;P2;SDS_P1;SDS_P2;PMS_P1;PMS_P2;Temp;Humidity;BMP_temperature;BMP_pressure;BME280_temperature;BME280_humidity;BME280_pressure;Samples;Min_cycle;Max_cycle;Signal;HPM_P1;HPM_P2
2023/03/16 00:00:14;;;;;;;16.80;7.38;;;;;;;9.31;63.51;101419.84;4928511;28;20553;-80
2023/03/16 00:02:46;;;;;;;28.80;7.65;;;;;;;8.93;65.04;101374.84;4940484;28;20270;-80
2023/03/16 00:05:14;;;;;;;23.15;8.13;;;;;;;9.28;63.77;101409.47;4942858;28;20113;-78
2023/03/16 00:07:46;;;;;;;14.50;7.40;;;;;;;9.34;64.19;101408.19;4956213;28;20870;-78
2023/03/16 00:10:13;;;;;;;16.52;7.70;;;;;;;9.27;61.96;101409.56;4957459;28;20698;-79
2023/03/16 00:12:46;;;;;;;12.48;6.90;;;;;;;9.43;63.90;101439.34;4945939;28;20349;-81
2023/03/16 00:15:15;;;;;;;13.75;7.03;;;;;;;9.40;62.36;101436.91;4946034;28;20047;-81
2023/03/16 00:17:56;;;;;;;16.40;7.72;;;;;;;9.45;62.61;101437.44;4938715;28;20132;-81
2023/03/16 00:20:29;;;;;;;19.13;7.28;;;;;;;9.50;62.75;101439.78;4954654;28;20146;-78
2023/03/16 00:22:58;;;;;;;12.35;7.07;;;;;;;9.50;62.31;101445.06;4958521;28;20086;-80
2023/03/16 00:25:26;;;;;;;11.65;7.20;;;;;;;9.41;61.17;101441.25;4943047;28;20076;-80
2023/03/16 00:28:08;;;;;;;8.73;5.78;;;;;;;9.37;59.90;101442.44;4936209;28;20796;-80
2023/03/16 00:30:57;;;;;;;8.10;4.78;;;;;;;9.48;62.21;101450.47;4933430;28;20129;-80
2023/03/16 00:33:26;;;;;;;9.35;5.40;;;;;;;9.43;59.17;101449.94;4961413;28;20377;-80
2023/03/16 00:36:16;;;;;;;8.10;5.20;;;;;;;9.36;59.72;101443.38;4943629;28;20061;-81
2023/03/16 00:38:52;;;;;;;10.95;5.68;;;;;;;9.36;59.36;101446.03;4954600;28;20047;-79
2023/03/16 00:41:19;;;;;;;8.88;5.82;;;;;;;9.17;59.24;101428.78;4945435;28;20059;-81
2023/03/16 00:43:50;;;;;;;9.60;5.38;;;;;;;8.99;59.12;101440.66;4948952;28;20136;-81
2023/03/16 00:46:17;;;;;;;11.27;5.20;;;;;;;8.89;60.51;101439.59;4941851;28;20421;-80
2023/03/16 00:48:48;;;;;;;11.95;4.82;;;;;;;8.66;59.54;101404.94;4932381;28;20312;-78
2023/03/16 00:51:18;;;;;;;8.18;4.43;;;;;;;8.94;62.26;101458.66;4939955;28;20058;-81
2023/03/16 00:53:45;;;;;;;8.63;4.88;;;;;;;8.85;59.44;101440.75;4918961;29;20055;-79
2023/03/16 00:56:19;;;;;;;9.52;5.32;;;;;;;8.86;59.54;101458.31;4935586;28;20054;-81
2023/03/16 00:59:00;;;;;;;10.32;5.60;;;;;;;8.70;59.27;101454.06;4925190;29;20090;-77
2023/03/16 01:01:35;;;;;;;10.45;6.15;;;;;;;8.83;59.95;101469.97;4925233;28;20141;-79
2023/03/16 01:04:02;;;;;;;9.95;6.38;;;;;;;8.64;59.89;101443.91;4925469;28;20109;-78
2023/03/16 01:06:34;;;;;;;7.15;5.55;;;;;;;8.64;59.82;101480.97;4934477;28;20434;-78
2023/03/16 01:09:04;;;;;;;11.32;6.40;;;;;;;7.87;60.12;101359.03;4941879;28;20556;-79
2023/03/16 01:11:37;;;;;;;7.78;5.68;;;;;;;8.52;60.78;101468.56;4936238;28;20324;-80
2023/03/16 01:14:06;;;;;;;11.18;5.47;;;;;;;8.40;61.17;101454.34;4960456;28;20050;-81
2023/03/16 01:16:44;;;;;;;8.82;5.78;;;;;;;7.44;61.48;101290.44;4943744;28;20368;-79
2023/03/16 01:19:21;;;;;;;11.07;5.75;;;;;;;8.46;61.02;101466.31;4944689;28;20358;-79
2023/03/16 01:22:04;;;;;;;10.90;5.10;;;;;;;8.50;61.96;101462.50;4962597;28;20440;-78
2023/03/16 01:24:33;;;;;;;16.42;5.47;;;;;;;8.69;62.75;101468.28;4963213;28;20113;-79
2023/03/16 01:27:13;;;;;;;8.55;5.00;;;;;;;8.51;61.06;101435.94;4918496;28;20063;-81
2023/03/16 01:29:42;;;;;;;5.95;4.95;;;;;;;8.49;60.38;101458.16;4949759;28;20050;-80
2023/03/16 01:32:11;;;;;;;9.52;5.57;;;;;;;8.44;60.61;101444.38;4965511;28;20116;-79
2023/03/16 01:34:38;;;;;;;10.32;5.43;;;;;;;8.45;60.51;101460.16;4969276;28;20274;-78
2023/03/16 01:37:23;;;;;;;10.82;5.72;;;;;;;7.96;60.30;101420.16;4949368;28;20326;-81
2023/03/16 01:39:58;;;;;;;8.85;5.45;;;;;;;8.08;61.24;101462.56;4947096;28;20087;-81
2023/03/16 01:42:27;;;;;;;9.63;5.80;;;;;;;7.98;62.28;101455.28;4961443;28;20125;-81
2023/03/16 01:45:00;;;;;;;8.73;5.90;;;;;;;7.87;62.69;101440.13;4947026;28;20234;-80
2023/03/16 01:47:37;;;;;;;10.13;5.95;;;;;;;7.78;62.93;101430.97;4966348;28;20672;-79
2023/03/16 01:50:07;;;;;;;13.63;5.90;;;;;;;7.39;63.67;101371.78;4937166;28;20051;-81
2023/03/16 01:52:57;;;;;;;10.02;5.28;;;;;;;7.67;63.09;101417.59;4954147;28;20346;-78
2023/03/16 01:55:34;;;;;;;10.48;5.40;;;;;;;7.77;62.92;101442.50;4928948;28;20117;-80
2023/03/16 01:58:08;;;;;;;9.70;5.22;;;;;;;7.69;62.21;101437.72;4944486;28;20059;-81
2023/03/16 02:00:44;;;;;;;8.25;4.75;;;;;;;7.64;63.54;101438.94;4956628;28;20680;-80
2023/03/16 02:03:15;;;;;;;9.63;4.88;;;;;;;7.60;63.43;101435.66;4948996;28;20062;-78
2023/03/16 02:05:57;;;;;;;12.93;5.03;;;;;;;7.64;64.10;101436.28;4978860;28;20221;-81
2023/03/16 02:08:27;;;;;;;7.78;5.15;;;;;;;7.59;64.70;101428.66;4975515;28;20132;-78
2023/03/16 02:10:55;;;;;;;12.20;5.57;;;;;;;7.67;64.38;101434.31;4956285;28;20137;-80
2023/03/16 02:13:29;;;;;;;10.23;5.00;;;;;;;7.64;64.13;101436.28;4969973;28;20054;-81
2023/03/16 02:16:08;;;;;;;8.52;4.55;;;;;;;7.29;64.22;101381.25;4978187;28;20362;-80
2023/03/16 02:18:35;;;;;;;11.50;4.80;;;;;;;6.99;64.65;101332.06;4973000;28;20413;-80
2023/03/16 02:21:04;;;;;;;5.65;4.38;;;;;;;7.23;64.74;101355.22;4989070;28;20502;-81
2023/03/16 02:23:31;;;;;;;19.80;5.25;;;;;;;7.79;64.54;101426.53;4978478;28;20108;-79
2023/03/16 02:26:25;;;;;;;14.32;5.38;;;;;;;7.85;63.85;101431.44;4969953;28;20046;-80
2023/03/16 02:29:17;;;;;;;7.10;4.65;;;;;;;7.87;64.16;101433.03;4966414;28;20046;-80
2023/03/16 02:31:44;;;;;;;14.43;4.73;;;;;;;7.64;64.70;101399.31;4966231;28;20038;-79
2023/03/16 02:34:16;;;;;;;7.65;5.05;;;;;;;7.77;64.95;101424.00;4971488;28;20054;-80
2023/03/16 02:36:51;;;;;;;8.65;4.40;;;;;;;7.81;65.04;101425.50;4977914;28;20060;-79
2023/03/16 02:39:17;;;;;;;6.18;4.25;;;;;;;7.84;65.19;101425.31;4954205;28;20054;-80
2023/03/16 02:41:46;;;;;;;11.48;4.50;;;;;;;7.90;64.46;101432.84;4949293;28;20064;-79
2023/03/16 02:44:25;;;;;;;7.53;4.55;;;;;;;7.89;65.03;101428.50;4968133;28;20058;-80
2023/03/16 02:46:58;;;;;;;7.47;4.55;;;;;;;7.56;65.09;101383.09;4974017;28;20307;-82
2023/03/16 02:49:37;;;;;;;6.93;3.95;;;;;;;7.70;64.17;101409.50;4972641;28;20642;-79
2023/03/16 02:52:05;;;;;;;7.13;4.18;;;;;;;7.58;63.82;101397.06;4953420;28;20050;-78
2023/03/16 02:54:46;;;;;;;5.80;4.28;;;;;;;7.59;64.50;101422.53;4967213;28;20079;-80
2023/03/16 02:57:12;;;;;;;8.35;4.75;;;;;;;7.32;64.29;101402.19;4953814;28;20489;-76
2023/03/16 02:59:46;;;;;;;5.57;4.95;;;;;;;7.27;64.91;101404.25;4964384;28;20283;-81
2023/03/16 03:02:12;;;;;;;7.00;4.30;;;;;;;7.39;65.78;101421.16;4967256;28;20062;-79
2023/03/16 03:04:45;;;;;;;8.90;4.72;;;;;;;7.36;65.64;101414.25;4962007;28;20566;-80
2023/03/16 03:07:18;;;;;;;4.93;4.03;;;;;;;7.47;66.58;101418.88;4961533;28;20057;-81
2023/03/16 03:09:48;;;;;;;5.55;4.07;;;;;;;7.35;65.73;101396.69;4969043;28;20343;-79
2023/03/16 03:12:19;;;;;;;6.07;4.40;;;;;;;7.34;65.79;101410.88;4949589;28;20121;-81
2023/03/16 03:14:46;;;;;;;4.85;3.67;;;;;;;7.39;65.53;101419.34;4964114;28;20046;-80
2023/03/16 03:17:28;;;;;;;3.75;3.15;;;;;;;7.74;66.70;101423.34;4971433;28;20344;-80
2023/03/16 03:19:57;;;;;;;6.30;3.80;;;;;;;7.35;65.07;101359.72;4964153;28;20058;-80
2023/03/16 03:22:29;;;;;;;7.28;3.65;;;;;;;7.92;64.45;101438.88;4976570;28;20058;-80
2023/03/16 03:25:04;;;;;;;4.68;3.83;;;;;;;8.04;65.48;101446.97;4957399;28;20050;-80
2023/03/16 03:27:32;;;;;;;8.60;3.80;;;;;;;8.11;65.63;101427.13;4963284;28;20048;-79
2023/03/16 03:30:03;;;;;;;7.15;3.15;;;;;;;8.11;65.18;101412.09;4970057;28;20404;-79
2023/03/16 03:32:30;;;;;;;8.50;3.13;;;;;;;8.55;65.75;101455.94;4960828;28;20057;-79
2023/03/16 03:34:57;;;;;;;6.47;2.90;;;;;;;8.06;64.94;101360.47;4959856;28;20081;-79
2023/03/16 03:37:24;;;;;;;3.55;2.70;;;;;;;8.70;61.83;101450.59;4954508;28;20046;-80
2023/03/16 03:40:03;;;;;;;3.20;2.67;;;;;;;8.66;62.52;101460.50;4959367;28;20408;-80
2023/03/16 03:42:30;;;;;;;4.78;2.83;;;;;;;8.62;61.78;101458.19;4938407;28;20372;-77
2023/03/16 03:45:06;;;;;;;10.88;2.70;;;;;;;8.35;61.59;101417.56;4941110;28;20133;-80
2023/03/16 03:47:43;;;;;;;2.53;2.30;;;;;;;8.46;61.33;101453.06;4941350;28;20551;-78
2023/03/16 03:50:13;;;;;;;4.28;2.95;;;;;;;8.27;61.24;101425.13;4914802;28;20509;-78
2023/03/16 03:52:48;;;;;;;4.45;2.60;;;;;;;8.42;63.33;101430.41;4925056;28;20058;-80
2023/03/16 03:55:15;;;;;;;3.83;2.90;;;;;;;7.44;62.80;101245.53;4925877;28;20454;-79
2023/03/16 03:57:42;;;;;;;3.10;2.30;;;;;;;8.67;60.08;101466.69;4932469;28;20165;-79
2023/03/16 04:00:19;;;;;;;3.08;2.33;;;;;;;8.11;60.32;101368.94;4917678;28;20051;-80
2023/03/16 04:02:57;;;;;;;3.60;2.80;;;;;;;8.47;59.05;101446.81;4934207;28;20119;-79
2023/03/16 04:05:28;;;;;;;2.67;2.25;;;;;;;8.50;58.60;101475.75;4927616;28;20054;-78
2023/03/16 04:07:58;;;;;;;3.75;2.75;;;;;;;8.28;59.19;101479.75;4918517;28;20123;-80
2023/03/16 04:10:31;;;;;;;4.95;2.47;;;;;;;8.05;60.46;101475.09;4918904;28;20101;-81
2023/03/16 04:12:59;;;;;;;4.68;2.85;;;;;;;7.90;60.35;101496.28;4912167;28;20461;-78
2023/03/16 04:15:32;;;;;;;3.03;2.53;;;;;;;7.79;61.35;101482.94;4937560;28;20172;-80
2023/03/16 04:18:03;;;;;;;5.18;2.65;;;;;;;7.77;61.52;101499.78;4914745;28;20061;-79
2023/03/16 04:20:35;;;;;;;3.92;2.42;;;;;;;7.71;61.67;101503.69;4918121;28;20058;-80
2023/03/16 04:23:05;;;;;;;3.30;3.00;;;;;;;7.25;62.60;101433.41;4918706;28;20121;-80
2023/03/16 04:25:37;;;;;;;5.43;2.70;;;;;;;7.51;63.15;101502.28;4930327;28;20267;-78
2023/03/16 04:28:05;;;;;;;6.07;2.95;;;;;;;7.52;63.07;101506.63;4937374;28;20413;-79
2023/03/16 04:30:34;;;;;;;6.45;3.20;;;;;;;7.50;63.15;101508.53;4930841;28;20316;-80
2023/03/16 04:33:04;;;;;;;5.55;2.70;;;;;;;7.39;62.97;101513.59;4921717;28;20054;-78
2023/03/16 04:35:40;;;;;;;9.60;3.10;;;;;;;7.34;63.35;101508.59;4934317;28;20046;-80
2023/03/16 04:38:07;;;;;;;6.10;2.38;;;;;;;7.38;63.63;101528.63;4924884;28;20082;-80
2023/03/16 04:40:42;;;;;;;4.10;2.55;;;;;;;7.26;63.61;101516.16;4917111;28;20047;-80
2023/03/16 04:43:09;;;;;;;6.43;2.85;;;;;;;7.20;63.48;101532.34;4935916;28;20142;-77
2023/03/16 04:45:37;;;;;;;6.22;2.92;;;;;;;6.96;62.94;101500.34;4912888;28;20046;-78
2023/03/16 04:48:05;;;;;;;5.72;2.78;;;;;;;7.10;62.78;101533.84;4907199;28;20075;-78
2023/03/16 04:50:35;;;;;;;2.38;2.17;;;;;;;6.98;63.48;101530.97;4935317;28;20051;-79
2023/03/16 04:53:04;;;;;;;4.78;3.40;;;;;;;6.60;63.47;101473.41;4921383;28;20147;-80
2023/03/16 04:55:40;;;;;;;4.90;3.08;;;;;;;6.95;63.74;101535.59;4899591;29;20055;-77
2023/03/16 04:58:10;;;;;;;5.57;3.10;;;;;;;6.72;63.80;101507.91;4907200;28;20344;-78
2023/03/16 05:00:44;;;;;;;9.98;3.35;;;;;;;6.84;64.31;101529.19;4922794;29;20385;-78
2023/03/16 05:03:21;;;;;;;4.75;3.15;;;;;;;6.64;64.76;101501.28;4904616;29;20411;-79
2023/03/16 05:05:48;;;;;;;8.82;3.38;;;;;;;6.89;65.09;101535.97;4914313;29;20093;-79
2023/03/16 05:08:15;;;;;;;5.60;3.47;;;;;;;6.97;65.60;101566.25;4934532;28;20259;-79
2023/03/16 05:10:43;;;;;;;15.48;5.13;;;;;;;6.83;65.53;101502.84;4906623;29;20509;-78
2023/03/16 05:13:10;;;;;;;11.75;3.67;;;;;;;6.63;65.19;101467.09;4922713;28;20051;-79
2023/03/16 05:15:41;;;;;;;31.33;5.05;;;;;;;7.03;64.96;101528.91;4934957;28;20126;-80
2023/03/16 05:18:11;;;;;;;18.70;4.85;;;;;;;7.15;65.54;101548.47;4924382;28;20255;-79
2023/03/16 05:20:44;;;;;;;14.20;4.20;;;;;;;7.16;65.58;101546.66;4954685;28;20113;-81
2023/03/16 05:23:15;;;;;;;10.20;3.80;;;;;;;7.32;65.12;101559.81;4937397;28;20130;-80
2023/03/16 05:25:46;;;;;;;10.25;3.97;;;;;;;7.28;64.78;101551.22;4953909;28;20540;-78
2023/03/16 05:28:13;;;;;;;19.08;5.43;;;;;;;7.31;64.89;101558.97;4932000;28;20078;-81
2023/03/16 05:30:41;;;;;;;7.55;3.65;;;;;;;7.21;65.75;101520.88;4934890;28;20141;-78
2023/03/16 05:33:08;;;;;;;6.32;3.97;;;;;;;6.80;65.20;101442.34;4919507;29;20130;-78
2023/03/16 05:35:41;;;;;;;10.07;4.47;;;;;;;7.45;64.70;101556.38;4909755;29;20051;-77
2023/03/16 05:38:08;;;;;;;11.98;4.53;;;;;;;7.47;64.44;101558.88;4918781;29;20062;-78
2023/03/16 05:40:36;;;;;;;24.42;5.47;;;;;;;7.30;64.92;101541.41;4936701;28;20047;-77
2023/03/16 05:43:04;;;;;;;15.30;4.68;;;;;;;7.16;65.13;101525.53;4897241;28;20527;-78
2023/03/16 05:45:36;;;;;;;17.55;4.35;;;;;;;7.46;65.47;101567.78;4949971;28;20065;-80
2023/03/16 05:48:10;;;;;;;10.57;4.25;;;;;;;7.22;65.73;101525.19;4950982;28;20046;-78
2023/03/16 05:50:42;;;;;;;15.40;5.03;;;;;;;7.64;66.51;101563.16;4920925;28;20097;-80
2023/03/16 05:53:35;;;;;;;10.15;4.20;;;;;;;7.69;65.70;101569.00;4924518;28;20059;-78
2023/03/16 05:56:05;;;;;;;14.57;3.92;;;;;;;7.69;65.65;101561.94;4930570;28;20065;-79
2023/03/16 05:58:32;;;;;;;10.32;4.18;;;;;;;7.64;64.66;101542.00;4941293;28;21491;-80
2023/03/16 06:01:01;;;;;;;8.57;4.10;;;;;;;7.80;64.58;101590.34;4932321;28;20042;-79
2023/03/16 06:03:31;;;;;;;11.60;4.05;;;;;;;7.48;64.50;101540.31;4921894;28;20150;-80
2023/03/16 06:05:57;;;;;;;15.20;10.23;;;;;;;7.68;64.61;101583.16;4932877;28;20543;-79
2023/03/16 06:08:30;;;;;;;13.50;5.35;;;;;;;7.65;65.25;101588.66;4935107;28;20067;-79
2023/03/16 06:11:15;;;;;;;14.77;5.30;;;;;;;7.44;64.55;101556.44;4910999;29;20405;-77
2023/03/16 06:13:48;;;;;;;17.23;7.10;;;;;;;7.62;65.04;101594.09;4931123;28;20410;-78
2023/03/16 06:16:16;;;;;;;11.57;6.53;;;;;;;7.59;65.15;101586.38;4920160;29;20387;-79
2023/03/16 06:18:43;;;;;;;9.35;5.30;;;;;;;7.50;65.23;101571.94;4899003;29;20083;-79
2023/03/16 06:21:09;;;;;;;11.05;5.35;;;;;;;7.64;65.04;101590.41;4909061;29;20054;-79
2023/03/16 06:23:39;;;;;;;14.20;4.70;;;;;;;7.60;65.05;101580.16;4938538;28;20118;-79
2023/03/16 06:26:15;;;;;;;19.25;5.72;;;;;;;7.62;64.97;101578.25;4912310;29;20054;-77
2023/03/16 06:28:41;;;;;;;16.48;7.07;;;;;;;7.86;64.40;101619.06;4926579;29;20054;-78
2023/03/16 06:31:08;;;;;;;16.67;6.75;;;;;;;7.55;64.64;101566.34;4919921;29;20043;-78
2023/03/16 06:33:35;;;;;;;11.80;5.97;;;;;;;7.96;64.30;101634.34;4937352;28;20078;-79
2023/03/16 06:36:02;;;;;;;9.85;5.90;;;;;;;8.01;64.86;101640.19;4922201;29;20063;-79
2023/03/16 06:38:29;;;;;;;11.20;5.63;;;;;;;6.87;64.48;101443.69;4922156;29;20043;-79
2023/03/16 06:41:00;;;;;;;8.82;5.00;;;;;;;7.80;63.76;101587.69;4918290;29;20811;-79
2023/03/16 06:43:27;;;;;;;12.98;5.47;;;;;;;7.91;63.65;101597.59;4919071;28;20144;-80
2023/03/16 06:45:53;;;;;;;9.65;5.25;;;;;;;8.13;63.36;101629.72;4937246;28;20102;-78
2023/03/16 06:48:20;;;;;;;10.63;4.60;;;;;;;8.15;63.67;101624.31;4916204;29;20424;-79
2023/03/16 06:50:47;;;;;;;7.68;3.97;;;;;;;8.26;62.66;101621.88;4939558;28;20051;-79
2023/03/16 06:53:13;;;;;;;5.80;3.55;;;;;;;8.65;62.83;101652.06;4938509;28;20055;-79
2023/03/16 06:55:40;;;;;;;10.43;3.75;;;;;;;8.52;61.96;101604.38;4941125;28;20062;-78
2023/03/16 06:58:07;;;;;;;12.88;4.35;;;;;;;9.06;63.00;101659.13;4925332;29;20458;-79
2023/03/16 07:00:33;;;;;;;5.53;4.53;;;;;;;9.04;60.69;101639.00;4937147;28;20067;-77
2023/03/16 07:03:00;;;;;;;7.78;4.65;;;;;;;9.04;60.73;101642.47;4919630;28;20063;-79
2023/03/16 07:05:30;;;;;;;7.93;4.57;;;;;;;8.93;60.29;101629.09;4922062;29;20418;-77
2023/03/16 07:08:00;;;;;;;9.50;3.70;;;;;;;9.19;59.81;101670.59;4929801;28;20435;-77
2023/03/16 07:10:26;;;;;;;7.10;4.13;;;;;;;9.20;60.30;101677.63;4912192;29;20133;-80
2023/03/16 07:12:54;;;;;;;10.48;3.85;;;;;;;8.97;60.05;101638.53;4925291;28;20048;-78
2023/03/16 07:15:27;;;;;;;8.05;4.60;;;;;;;9.33;60.62;101663.56;4931418;28;20058;-78
2023/03/16 07:17:56;;;;;;;10.25;4.07;;;;;;;9.14;60.14;101619.72;4921498;29;20043;-78
2023/03/16 07:20:23;;;;;;;6.75;3.90;;;;;;;9.62;59.92;101688.09;4903523;29;20418;-78
2023/03/16 07:22:51;;;;;;;10.73;5.15;;;;;;;9.22;59.14;101621.00;4917767;28;20047;-78
2023/03/16 07:25:37;;;;;;;10.95;4.65;;;;;;;9.62;59.83;101683.63;4919276;28;20066;-79
2023/03/16 07:28:06;;;;;;;9.73;5.03;;;;;;;9.69;59.60;101686.72;4927723;28;20083;-79
2023/03/16 07:30:46;;;;;;;12.15;4.55;;;;;;;9.81;59.75;101703.63;4919233;29;20043;-78
2023/03/16 07:33:31;;;;;;;13.43;4.85;;;;;;;9.73;59.95;101695.31;4919575;28;20051;-79
2023/03/16 07:36:09;;;;;;;10.98;4.88;;;;;;;9.85;60.12;101699.78;4924449;29;20039;-78
2023/03/16 07:38:41;;;;;;;13.85;5.22;;;;;;;10.01;59.99;101712.84;4912781;28;20051;-78
2023/03/16 07:41:08;;;;;;;11.77;5.45;;;;;;;10.12;61.08;101720.94;4937427;28;20051;-79
2023/03/16 07:43:35;;;;;;;9.13;4.43;;;;;;;10.09;59.90;101728.25;4931465;28;20106;-79
2023/03/16 07:46:01;;;;;;;9.60;4.32;;;;;;;9.72;60.14;101670.59;4927648;28;20043;-81
2023/03/16 07:48:28;;;;;;;7.10;4.00;;;;;;;10.08;59.52;101732.69;4928738;28;20120;-79
2023/03/16 07:51:04;;;;;;;7.78;4.70;;;;;;;9.99;60.47;101712.94;4917464;29;20118;-80
2023/03/16 07:53:41;;;;;;;10.52;4.72;;;;;;;9.75;61.52;101632.41;4931171;29;20506;-78
2023/03/16 07:56:08;;;;;;;8.65;5.32;;;;;;;10.37;60.57;101722.75;4943279;28;20117;-77
2023/03/16 07:58:35;;;;;;;6.03;3.97;;;;;;;10.42;60.22;101736.53;4927133;29;20153;-75
2023/03/16 08:01:03;;;;;;;6.50;4.43;;;;;;;10.52;60.15;101746.53;4899136;29;20114;-79
2023/03/16 08:03:32;;;;;;;5.82;3.60;;;;;;;10.61;61.71;101732.59;4904096;28;20056;-80
2023/03/16 08:06:11;;;;;;;4.53;3.30;;;;;;;11.11;61.87;101736.91;4918638;29;20525;-79
2023/03/16 08:08:38;;;;;;;5.10;3.25;;;;;;;11.82;60.36;101750.28;4909356;29;20054;-80
2023/03/16 08:11:08;;;;;;;4.22;3.05;;;;;;;12.16;59.36;101748.56;4898047;29;20465;-80
2023/03/16 08:13:35;;;;;;;6.40;3.60;;;;;;;12.17;56.76;101744.94;4906925;28;20305;-77
2023/03/16 08:16:09;;;;;;;4.72;3.22;;;;;;;12.42;57.26;101752.81;4922089;29;20413;-80
2023/03/16 08:18:53;;;;;;;6.18;3.40;;;;;;;12.35;57.97;101731.13;4913237;29;20512;-78
2023/03/16 08:21:22;;;;;;;4.53;2.80;;;;;;;12.93;56.79;101755.81;4902051;29;20403;-77
2023/03/16 08:23:50;;;;;;;5.82;3.10;;;;;;;12.73;56.72;101740.59;4901902;29;20047;-79
2023/03/16 08:26:40;;;;;;;3.60;2.67;;;;;;;12.99;53.80;101768.66;4901767;28;20219;-77
2023/03/16 08:29:11;;;;;;;3.70;2.70;;;;;;;12.72;55.15;101770.84;4932268;28;20738;-77
2023/03/16 08:31:38;;;;;;;7.88;2.72;;;;;;;12.39;53.14;101740.59;4920094;28;20163;-77
2023/03/16 08:34:05;;;;;;;8.57;3.08;;;;;;;12.62;53.09;101744.09;4910584;29;20130;-80
2023/03/16 08:36:32;;;;;;;6.78;2.85;;;;;;;13.02;55.61;101773.72;4909317;29;20150;-80
2023/03/16 08:39:04;;;;;;;3.83;2.30;;;;;;;13.48;55.02;101771.00;4928135;28;20159;-80
2023/03/16 08:41:33;;;;;;;4.55;2.15;;;;;;;12.95;54.21;101671.25;4911627;29;20829;-81
2023/03/16 08:44:00;;;;;;;4.20;1.98;;;;;;;13.44;48.08;101781.06;4915460;28;20051;-79
2023/03/16 08:46:28;;;;;;;5.20;2.17;;;;;;;12.95;50.28;101750.38;4908301;29;20098;-81
2023/03/16 08:48:57;;;;;;;8.02;2.03;;;;;;;12.72;51.07;101736.22;4912203;29;20659;-80
2023/03/16 08:51:32;;;;;;;2.28;1.45;;;;;;;12.63;51.51;101740.47;4907335;29;20169;-79
2023/03/16 08:54:29;;;;;;;2.58;1.65;;;;;;;13.16;49.54;101779.78;4911243;29;20055;-80
2023/03/16 08:56:57;;;;;;;4.07;1.63;;;;;;;12.99;49.03;101779.31;4916386;29;20051;-80
2023/03/16 08:59:27;;;;;;;6.22;1.65;;;;;;;13.08;46.92;101771.53;4912124;29;20048;-78
2023/03/16 09:01:58;;;;;;;5.38;1.48;;;;;;;13.04;45.75;101765.63;4929743;28;20057;-79
2023/03/16 09:04:31;;;;;;;3.55;1.70;;;;;;;12.83;45.50;101744.19;4934488;28;20130;-79
2023/03/16 09:07:11;;;;;;;7.03;1.40;;;;;;;13.05;46.95;101796.63;4927506;28;20047;-81
2023/03/16 09:09:45;;;;;;;2.78;1.50;;;;;;;13.28;49.85;101793.94;4937028;28;20074;-80
2023/03/16 09:12:12;;;;;;;2.20;1.40;;;;;;;13.39;44.62;101792.09;4926244;28;20046;-81
2023/03/16 09:14:39;;;;;;;3.88;1.67;;;;;;;13.18;47.18;101780.47;4940276;28;20382;-79
2023/03/16 09:17:10;;;;;;;4.78;1.63;;;;;;;12.92;44.88;101770.13;4915743;28;20047;-80
2023/03/16 09:19:43;;;;;;;2.33;1.55;;;;;;;13.28;48.67;101761.94;4910354;28;20587;-79
2023/03/16 09:22:34;;;;;;;4.30;1.00;;;;;;;13.39;49.85;101759.25;4874944;28;20062;-78
2023/03/16 09:25:10;;;;;;;2.92;1.20;;;;;;;13.61;48.70;101720.97;4899242;28;20053;-79
2023/03/16 09:27:44;;;;;;;3.72;1.40;;;;;;;14.30;47.68;101805.88;4938101;28;20054;-78
2023/03/16 09:30:19;;;;;;;4.43;1.45;;;;;;;14.20;46.96;101805.81;4945052;28;20093;-78
2023/03/16 09:32:52;;;;;;;2.63;1.50;;;;;;;14.40;47.61;101803.28;4939519;28;20193;-79
2023/03/16 09:35:28;;;;;;;1.90;1.20;;;;;;;14.42;47.22;101790.63;4905311;28;20334;-76
2023/03/16 09:38:01;;;;;;;2.42;1.48;;;;;;;13.94;46.28;101737.78;4921857;28;20099;-83
2023/03/16 09:40:43;;;;;;;1.77;1.45;;;;;;;14.34;45.25;101793.94;4915429;28;20054;-83
2023/03/16 09:43:35;;;;;;;2.95;1.10;;;;;;;14.52;45.74;101813.75;4899061;28;20133;-82
2023/03/16 09:46:33;;;;;;;1.75;1.27;;;;;;;13.91;44.56;101730.88;4927252;28;20264;-80
2023/03/16 09:49:02;;;;;;;2.67;1.33;;;;;;;14.78;46.05;101820.50;4922155;28;20062;-81
2023/03/16 09:52:05;;;;;;;2.58;1.20;;;;;;;14.68;43.75;101821.28;4918143;28;20347;-80
2023/03/16 09:54:55;;;;;;;3.17;1.30;;;;;;;14.84;44.82;101823.47;4938996;28;20332;-84
2023/03/16 09:57:34;;;;;;;3.88;1.63;;;;;;;14.61;44.42;101801.44;4901775;28;20531;-81
2023/03/16 10:00:10;;;;;;;2.45;1.40;;;;;;;14.48;44.46;101764.22;4932406;28;20377;-79
2023/03/16 10:03:03;;;;;;;3.55;1.50;;;;;;;14.97;42.14;101831.25;4920356;28;20593;-76
2023/03/16 10:05:38;;;;;;;5.00;1.27;;;;;;;14.66;41.45;101815.25;4889390;29;20055;-82
2023/03/16 10:08:23;;;;;;;2.47;1.15;;;;;;;14.78;43.07;101807.13;4881251;29;20058;-81
2023/03/16 10:11:32;;;;;;;4.22;1.20;;;;;;;15.21;44.52;101838.09;4895485;29;20055;-80
2023/03/16 10:14:27;;;;;;;2.53;1.20;;;;;;;15.03;42.71;101846.78;4873713;29;20044;-80
2023/03/16 10:17:20;;;;;;;1.48;1.00;;;;;;;14.79;43.46;101819.53;4863272;29;20337;-78
2023/03/16 10:20:10;;;;;;;1.63;1.05;;;;;;;14.74;43.38;101811.91;4882469;29;20051;-80
2023/03/16 10:22:41;;;;;;;2.83;1.23;;;;;;;14.99;42.98;101836.50;4886361;29;20131;-79
2023/03/16 10:25:27;;;;;;;2.10;1.30;;;;;;;15.26;43.20;101843.88;4887331;29;20059;-79
2023/03/16 10:28:02;;;;;;;4.38;1.30;;;;;;;15.12;43.61;101816.56;4890679;29;20397;-81
2023/03/16 10:30:39;;;;;;;1.90;1.17;;;;;;;15.06;41.58;101838.47;4888267;28;20051;-80
2023/03/16 10:33:23;;;;;;;1.70;1.10;;;;;;;14.97;42.53;101820.56;4893100;29;20225;-80
2023/03/16 10:36:05;;;;;;;3.13;1.33;;;;;;;14.82;42.34;101787.19;4900220;29;20450;-78
2023/03/16 10:38:49;;;;;;;3.28;1.05;;;;;;;15.25;43.16;101826.16;4889260;29;20479;-78
2023/03/16 10:41:39;;;;;;;3.05;1.05;;;;;;;15.37;43.22;101841.94;4839295;29;20256;-79
2023/03/16 10:44:28;;;;;;;4.60;1.30;;;;;;;15.39;42.55;101815.91;4895374;29;20631;-79
2023/03/16 10:47:04;;;;;;;3.15;1.50;;;;;;;15.36;43.04;101834.03;4864955;29;20375;-79
2023/03/16 10:49:39;;;;;;;2.85;1.42;;;;;;;15.36;41.95;101832.25;4885557;29;20513;-78
2023/03/16 10:52:13;;;;;;;5.18;2.00;;;;;;;15.17;40.06;101825.00;4880019;29;20454;-77
2023/03/16 10:54:46;;;;;;;2.47;1.10;;;;;;;15.15;42.31;101815.44;4888612;29;20186;-78
2023/03/16 10:57:41;;;;;;;2.25;1.48;;;;;;;15.30;42.11;101835.44;4867290;28;20399;-78
2023/03/16 11:00:23;;;;;;;2.75;1.67;;;;;;;15.29;39.81;101844.47;4908691;28;20410;-77
2023/03/16 11:02:55;;;;;;;5.55;2.33;;;;;;;15.10;39.43;101823.03;4922885;28;20873;-80
2023/03/16 11:05:30;;;;;;;2.10;1.52;;;;;;;15.51;40.75;101826.47;4914445;28;20551;-79
2023/03/16 11:08:15;;;;;;;4.35;1.85;;;;;;;15.42;42.08;101854.06;4926685;28;20078;-80
2023/03/16 11:10:56;;;;;;;8.05;2.58;;;;;;;15.18;38.77;101813.31;4927368;28;20051;-78
2023/03/16 11:13:36;;;;;;;5.82;2.20;;;;;;;15.44;39.48;101834.22;4931249;28;20050;-80
2023/03/16 11:16:20;;;;;;;3.70;1.95;;;;;;;15.83;40.71;101839.66;4927794;28;20055;-81
2023/03/16 11:18:57;;;;;;;3.20;1.50;;;;;;;15.63;40.96;101781.69;4945221;28;20437;-80
2023/03/16 11:21:53;;;;;;;3.60;1.73;;;;;;;15.85;38.89;101818.94;4934652;28;20251;-79
2023/03/16 11:24:41;;;;;;;3.13;2.03;;;;;;;15.88;39.20;101834.72;4935630;28;20055;-79
2023/03/16 11:27:36;;;;;;;2.63;1.85;;;;;;;16.05;39.33;101829.63;4934376;28;20289;-79
2023/03/16 11:30:32;;;;;;;5.32;1.60;;;;;;;16.16;39.83;101838.34;4944883;28;20227;-80
2023/03/16 11:32:59;;;;;;;4.10;1.77;;;;;;;15.91;40.74;101791.56;4931454;28;20314;-80
2023/03/16 11:35:41;;;;;;;2.88;1.60;;;;;;;16.10;41.00;101814.81;4930315;28;20753;-79
2023/03/16 11:38:38;;;;;;;4.72;1.83;;;;;;;14.69;40.08;101627.88;4947925;28;20065;-77
2023/03/16 11:41:15;;;;;;;4.85;2.00;;;;;;;16.11;39.79;101834.41;4951713;28;20141;-78
2023/03/16 11:43:51;;;;;;;6.50;2.65;;;;;;;16.14;39.20;101816.22;4949061;28;20051;-79
2023/03/16 11:46:49;;;;;;;4.93;2.17;;;;;;;16.14;39.15;101820.72;4936118;28;20047;-80
2023/03/16 11:49:46;;;;;;;3.60;2.45;;;;;;;16.00;37.72;101825.53;4927007;28;20344;-81
2023/03/16 11:52:30;;;;;;;3.08;1.98;;;;;;;16.08;38.95;101799.88;4941947;28;20048;-80
2023/03/16 11:55:23;;;;;;;5.28;2.05;;;;;;;16.19;40.50;101771.09;4913460;28;20043;-80
2023/03/16 11:58:29;;;;;;;2.35;1.60;;;;;;;16.34;41.14;101803.63;4932579;28;20472;-81
2023/03/16 12:01:32;;;;;;;5.07;1.98;;;;;;;15.79;42.01;101782.00;4949593;28;20098;-80